Time;durP1;ratioP1;P1;durP2;ratioP2;P2;SDS_P1;SDS_P2;PMS_P1;PMS_P2;Temp;Humidity;BMP_temperature;BMP_pressure;BME280_temperature;BME280_humidity;BME280_pressure;Samples;Min_cycle;Max_cycle;Signal;HPM_P1;HPM_P2
2023/04/28 00:00:23;;;;;;;;;1.00;1.00;;;;;21.90;44.51;101321.95;110226;1251;19327;-41
2023/04/28 00:03:11;;;;;;;;;2.00;2.00;;;;;21.90;44.42;101321.85;110214;1264;21277;-39
2023/04/28 00:05:38;;;;;;;;;2.00;2.00;;;;;21.90;44.34;101319.95;110177;1250;21952;-41
2023/04/28 00:08:06;;;;;;;;;2.00;2.00;;;;;21.89;44.40;101322.06;110214;1264;19180;-41
2023/04/28 00:10:33;;;;;;;;;2.00;1.00;;;;;21.90;44.50;101319.20;110138;1264;18559;-41
2023/04/28 00:13:01;;;;;;;;;1.50;1.00;;;;;21.89;44.47;101316.88;110234;1250;19128;-40
2023/04/28 00:15:28;;;;;;;;;2.00;2.00;;;;;21.89;44.53;101316.36;110191;1265;19965;-41
2023/04/28 00:17:55;;;;;;;;;1.50;1.50;;;;;21.89;44.52;101322.71;110222;1265;18794;-40
2023/04/28 00:20:23;;;;;;;;;2.00;2.00;;;;;21.89;44.61;101323.15;110171;1264;19628;-39
2023/04/28 00:22:50;;;;;;;;;2.00;2.00;;;;;21.89;44.50;101325.31;110199;1250;19272;-40
2023/04/28 00:25:18;;;;;;;;;1.00;1.00;;;;;21.89;44.47;101326.23;110220;1250;20149;-40
2023/04/28 00:27:45;;;;;;;;;1.00;1.00;;;;;21.88;44.51;101328.64;110217;1264;18207;-41
2023/04/28 00:30:12;;;;;;;;;1.00;1.00;;;;;21.88;44.48;101327.18;110143;1250;20113;-41
2023/04/28 00:32:40;;;;;;;;;2.00;1.00;;;;;21.88;44.49;101328.30;110214;1250;20149;-40
2023/04/28 00:35:07;;;;;;;;;2.00;1.50;;;;;21.88;44.36;101327.79;110229;1265;19580;-40
2023/04/28 00:37:35;;;;;;;;;2.00;2.00;;;;;21.87;44.62;101333.77;110178;1251;19352;-40
2023/04/28 00:40:02;;;;;;;;;2.00;1.50;;;;;21.87;44.64;101330.58;110188;1251;20323;-40
2023/04/28 00:42:30;;;;;;;;;2.00;2.00;;;;;21.86;44.44;101329.73;110209;1257;22990;-39
2023/04/28 00:44:57;;;;;;;;;2.00;2.00;;;;;21.86;44.36;101334.49;110192;1264;17796;-40
2023/04/28 00:47:25;;;;;;;;;1.00;1.00;;;;;21.86;44.42;101331.94;110196;1250;21952;-40
2023/04/28 00:49:52;;;;;;;;;2.00;2.00;;;;;21.86;44.64;101332.80;110189;1264;19593;-42
2023/04/28 00:52:20;;;;;;;;;2.00;2.00;;;;;21.86;44.49;101334.13;110196;1251;19545;-40
2023/04/28 00:54:47;;;;;;;;;2.00;2.00;;;;;21.87;44.46;101334.91;110212;1264;19993;-43
2023/04/28 00:57:15;;;;;;;;;2.00;2.00;;;;;21.86;44.61;101333.91;110198;1257;21991;-41
2023/04/28 00:59:42;;;;;;;;;2.00;2.00;;;;;21.86;44.33;101330.17;110215;1251;19326;-40
2023/04/28 01:02:15;;;;;;;;;1.00;1.00;;;;;21.86;44.49;101335.63;110209;1264;21436;-40
2023/04/28 01:04:43;;;;;;;;;1.00;1.00;;;;;21.85;44.40;101337.51;110193;1250;22288;-40
2023/04/28 01:07:10;;;;;;;;;1.00;1.00;;;;;21.85;44.47;101334.19;110198;1251;19262;-41
2023/04/28 01:09:38;;;;;;;;;2.00;2.00;;;;;21.85;44.48;101331.67;110194;1264;18934;-40
2023/04/28 01:12:05;;;;;;;;;1.50;1.50;;;;;21.85;44.48;101328.98;110216;1264;18200;-40
2023/04/28 01:14:33;;;;;;;;;1.00;1.00;;;;;21.85;44.48;101331.70;110196;1250;20446;-40
2023/04/28 01:17:00;;;;;;;;;2.00;2.00;;;;;21.84;44.58;101333.42;110176;1264;19901;-39
2023/04/28 01:19:28;;;;;;;;;1.67;1.67;;;;;21.84;44.61;101328.02;110306;1264;19295;-38
2023/04/28 01:21:56;;;;;;;;;2.00;2.00;;;;;21.85;44.64;101332.49;110283;1250;21550;-38
2023/04/28 01:24:23;;;;;;;;;1.00;1.00;;;;;21.84;44.49;101332.16;110259;1259;19947;-40
2023/04/28 01:26:50;;;;;;;;;1.00;1.00;;;;;21.84;44.49;101339.08;110196;1264;19780;-39
2023/04/28 01:29:18;;;;;;;;;2.00;2.00;;;;;21.84;44.57;101344.95;110239;1265;17896;-40
2023/04/28 01:31:45;;;;;;;;;1.00;1.00;;;;;21.83;44.56;101337.16;110241;1264;19803;-40
2023/04/28 01:34:13;;;;;;;;;1.00;1.00;;;;;21.83;44.44;101336.70;110205;1250;20470;-40
2023/04/28 01:36:40;;;;;;;;;2.00;2.00;;;;;21.82;44.45;101334.02;110213;1251;19243;-40
2023/04/28 01:39:08;;;;;;;;;2.00;2.00;;;;;21.83;44.51;101333.93;110199;1260;20014;-39
2023/04/28 01:41:35;;;;;;;;;1.00;1.00;;;;;21.83;44.58;101333.55;110247;1264;18199;-39
2023/04/28 01:44:02;;;;;;;;;1.00;1.00;;;;;21.82;44.47;101330.02;110203;1264;17990;-39
2023/04/28 01:46:30;;;;;;;;;2.00;2.00;;;;;21.82;44.50;101333.27;110236;1264;18588;-40
2023/04/28 01:48:57;;;;;;;;;2.00;2.00;;;;;21.82;44.53;101336.70;110173;1251;21802;-41
2023/04/28 01:51:26;;;;;;;;;1.00;1.00;;;;;21.82;44.37;101335.50;110215;1265;19253;-40
2023/04/28 01:53:53;;;;;;;;;1.33;1.00;;;;;21.81;44.54;101332.64;110209;1250;18541;-41
2023/04/28 01:56:21;;;;;;;;;2.00;2.00;;;;;21.80;44.40;101330.77;110156;1264;19640;-40
2023/04/28 01:58:48;;;;;;;;;1.00;1.00;;;;;21.81;44.34;101328.69;110176;1264;19138;-41
2023/04/28 02:01:16;;;;;;;;;1.67;1.67;;;;;21.82;44.35;101332.23;110121;1264;19901;-40
2023/04/28 02:03:43;;;;;;;;;1.00;1.00;;;;;21.82;44.55;101327.16;110098;1264;18344;-41
2023/04/28 02:06:10;;;;;;;;;2.00;2.00;;;;;21.82;44.45;101327.36;110111;1249;19529;-41
2023/04/28 02:08:38;;;;;;;;;1.00;1.00;;;;;21.81;44.39;101325.20;110204;1250;22642;-40
2023/04/28 02:11:05;;;;;;;;;1.00;1.00;;;;;21.81;44.39;101328.14;110233;1251;19633;-40
2023/04/28 02:13:33;;;;;;;;;2.00;2.00;;;;;21.80;44.33;101326.41;110240;1250;20613;-40
2023/04/28 02:16:01;;;;;;;;;1.00;1.00;;;;;21.80;44.43;101325.65;110271;1264;21250;-41
2023/04/28 02:18:29;;;;;;;;;1.00;1.00;;;;;21.80;44.47;101326.82;110297;1250;19722;-41
2023/04/28 02:20:56;;;;;;;;;1.00;1.00;;;;;21.80;44.39;101328.46;110225;1250;19258;-45
2023/04/28 02:23:24;;;;;;;;;1.00;1.00;;;;;21.80;44.34;101331.94;110190;1264;19085;-41
2023/04/28 02:25:51;;;;;;;;;1.33;1.33;;;;;21.80;44.40;101333.20;110220;1265;19534;-41
2023/04/28 02:28:18;;;;;;;;;1.00;1.00;;;;;21.80;44.49;101333.58;110185;1264;19265;-41
2023/04/28 02:30:46;;;;;;;;;1.00;1.00;;;;;21.79;44.46;101333.95;110147;1251;19990;-41
2023/04/28 02:33:13;;;;;;;;;1.00;1.00;;;;;21.79;44.31;101337.25;110172;1250;18236;-44
2023/04/28 02:35:42;;;;;;;;;1.00;1.00;;;;;21.79;44.43;101334.77;110118;1265;22066;-39
2023/04/28 02:38:09;;;;;;;;;1.00;1.00;;;;;21.80;44.30;101334.66;110154;1265;21559;-40
2023/04/28 02:40:37;;;;;;;;;1.00;1.00;;;;;21.79;44.47;101334.36;110253;1249;19254;-40
2023/04/28 02:43:04;;;;;;;;;1.00;1.00;;;;;21.79;44.38;101334.44;110186;1264;19408;-39
2023/04/28 02:45:31;;;;;;;;;1.00;1.00;;;;;21.77;44.48;101335.33;110194;1251;19907;-39
2023/04/28 02:48:02;;;;;;;;;1.00;1.00;;;;;21.78;44.37;101341.36;110179;1264;18219;-42
2023/04/28 02:50:29;;;;;;;;;1.00;1.00;;;;;21.78;44.37;101336.82;110206;1265;21971;-40
2023/04/28 02:52:57;;;;;;;;;2.00;1.00;;;;;21.78;44.32;101336.83;110177;1264;20137;-39
2023/04/28 02:55:24;;;;;;;;;1.00;1.00;;;;;21.78;44.30;101336.86;110190;1264;19653;-40
2023/04/28 02:57:51;;;;;;;;;1.00;1.00;;;;;21.78;44.35;101333.00;110210;1264;19207;-40
2023/04/28 03:00:19;;;;;;;;;1.00;1.00;;;;;21.78;44.24;101330.81;110177;1264;19177;-40
2023/04/28 03:02:46;;;;;;;;;1.00;1.00;;;;;21.78;44.48;101332.52;110207;1265;18184;-41
2023/04/28 03:05:14;;;;;;;;;1.00;1.00;;;;;21.77;44.22;101330.07;110211;1264;19206;-40
2023/04/28 03:07:41;;;;;;;;;2.00;2.00;;;;;21.76;44.34;101332.31;110203;1250;21658;-43
2023/04/28 03:10:09;;;;;;;;;1.00;1.00;;;;;21.77;44.25;101331.13;110217;1251;19783;-40
2023/04/28 03:12:36;;;;;;;;;2.00;2.00;;;;;21.77;44.34;101330.27;110193;1265;17750;-41
2023/04/28 03:15:04;;;;;;;;;1.00;1.00;;;;;21.77;44.32;101329.52;110209;1264;20023;-42
2023/04/28 03:17:32;;;;;;;;;1.00;1.00;;;;;21.76;44.20;101333.61;110157;1264;18167;-40
2023/04/28 03:19:59;;;;;;;;;1.00;1.00;;;;;21.75;44.34;101331.33;110112;1264;19397;-41
2023/04/28 03:22:27;;;;;;;;;1.00;1.00;;;;;21.76;44.45;101330.71;110169;1250;21221;-40
2023/04/28 03:24:54;;;;;;;;;1.00;1.00;;;;;21.76;44.47;101327.09;110212;1264;19567;-39
2023/04/28 03:27:21;;;;;;;;;1.00;1.00;;;;;21.76;44.37;101327.30;110214;1265;21794;-39
2023/04/28 03:29:49;;;;;;;;;2.00;2.00;;;;;21.75;44.22;101331.88;110305;1264;18596;-39
2023/04/28 03:32:16;;;;;;;;;2.00;2.00;;;;;21.76;44.42;101330.34;110296;1249;19238;-38
2023/04/28 03:34:44;;;;;;;;;1.00;1.00;;;;;21.77;44.32;101335.19;110307;1264;19266;-39
2023/04/28 03:37:12;;;;;;;;;2.00;2.00;;;;;21.76;44.19;101335.77;110215;1264;18567;-39
2023/04/28 03:39:40;;;;;;;;;1.00;1.00;;;;;21.76;44.33;101339.27;110223;1264;18246;-39
2023/04/28 03:42:07;;;;;;;;;1.00;1.00;;;;;21.75;44.23;101341.30;110199;1264;17891;-38
2023/04/28 03:44:35;;;;;;;;;2.00;2.00;;;;;21.75;44.29;101338.79;110196;1251;21318;-39
2023/04/28 03:47:02;;;;;;;;;2.00;1.00;;;;;21.75;44.39;101339.73;110194;1264;18165;-39
2023/04/28 03:49:29;;;;;;;;;3.33;2.00;;;;;21.76;44.28;101339.30;110176;1264;19171;-40
2023/04/28 03:51:57;;;;;;;;;2.00;2.00;;;;;21.74;44.34;101339.09;110205;1264;18536;-39
2023/04/28 03:54:24;;;;;;;;;1.50;1.50;;;;;21.74;44.42;101340.77;110212;1264;18178;-40
2023/04/28 03:56:52;;;;;;;;;1.00;1.00;;;;;21.75;44.28;101346.70;110202;1265;19230;-40
2023/04/28 03:59:19;;;;;;;;;1.33;1.33;;;;;21.75;44.22;101348.51;110205;1264;18462;-41
2023/04/28 04:01:47;;;;;;;;;2.00;2.00;;;;;21.74;44.05;101346.52;110206;1264;19565;-42
2023/04/28 04:04:14;;;;;;;;;1.00;1.00;;;;;21.74;44.33;101345.92;110203;1257;21661;-41
2023/04/28 04:06:42;;;;;;;;;1.00;1.00;;;;;21.74;44.32;101349.70;110208;1264;20131;-41
2023/04/28 04:09:09;;;;;;;;;2.00;2.00;;;;;21.73;44.21;101350.83;110206;1250;19664;-39
2023/04/28 04:11:37;;;;;;;;;1.00;1.00;;;;;21.74;44.26;101345.16;110223;1264;18083;-41
2023/04/28 04:14:05;;;;;;;;;2.00;2.00;;;;;21.73;44.37;101349.91;110231;1251;19998;-39
2023/04/28 04:16:32;;;;;;;;;1.00;1.00;;;;;21.74;44.43;101349.91;110224;1264;18715;-39
2023/04/28 04:18:59;;;;;;;;;2.00;1.00;;;;;21.73;44.23;101350.66;110191;1264;17836;-39
2023/04/28 04:21:27;;;;;;;;;1.00;1.00;;;;;21.73;44.27;101352.09;110212;1251;21241;-39
2023/04/28 04:23:55;;;;;;;;;2.00;2.00;;;;;21.74;44.24;101351.44;110265;1264;19593;-39
2023/04/28 04:26:22;;;;;;;;;2.00;1.00;;;;;21.74;44.15;101358.02;110197;1264;19201;-39
2023/04/28 04:28:50;;;;;;;;;1.00;1.00;;;;;21.74;44.26;101356.26;110190;1259;19990;-39
2023/04/28 04:31:18;;;;;;;;;4.00;2.00;;;;;21.75;44.25;101355.57;110226;1264;18195;-40
2023/04/28 04:33:45;;;;;;;;;2.00;2.00;;;;;21.74;44.17;101355.33;110244;1264;19354;-40
2023/04/28 04:36:13;;;;;;;;;2.00;2.00;;;;;21.73;44.13;101354.68;110199;1264;18573;-40
2023/04/28 04:38:40;;;;;;;;;1.00;1.00;;;;;21.74;44.07;101359.33;110211;1264;18593;-40
2023/04/28 04:41:07;;;;;;;;;2.00;2.00;;;;;21.73;44.16;101355.58;110220;1251;19276;-41
2023/04/28 04:43:35;;;;;;;;;1.00;1.00;;;;;21.74;44.26;101354.58;110196;1250;21576;-41
2023/04/28 04:46:03;;;;;;;;;4.00;2.00;;;;;21.74;44.06;101359.48;110204;1251;19603;-39
2023/04/28 04:48:31;;;;;;;;;1.00;1.00;;;;;21.74;44.36;101353.49;110186;1264;19349;-39
2023/04/28 04:50:58;;;;;;;;;2.00;2.00;;;;;21.75;44.10;101358.80;110271;1265;18563;-39
2023/04/28 04:53:26;;;;;;;;;2.00;2.00;;;;;21.74;44.43;101354.75;110170;1251;19720;-39
2023/04/28 04:55:53;;;;;;;;;1.00;1.00;;;;;21.75;44.35;101359.39;110205;1257;22828;-39
2023/04/28 04:58:20;;;;;;;;;4.00;2.00;;;;;21.75;44.33;101357.75;110231;1256;20151;-41
2023/04/28 05:00:48;;;;;;;;;2.00;2.00;;;;;21.78;44.15;101358.10;110198;1251;19644;-41
2023/04/28 05:03:15;;;;;;;;;2.00;2.00;;;;;21.83;44.47;101357.21;110199;1264;19071;-39
2023/04/28 05:05:44;;;;;;;;;2.00;2.00;;;;;21.86;44.91;101365.82;110211;1250;23134;-39
2023/04/28 05:08:11;;;;;;;;;2.00;2.00;;;;;21.87;45.01;101359.37;110183;1264;18167;-40
2023/04/28 05:10:39;;;;;;;;;4.00;2.00;;;;;21.88;45.09;101361.98;110219;1265;21414;-40
2023/04/28 05:13:07;;;;;;;;;4.00;2.00;;;;;21.88;45.11;101362.55;110173;1250;18973;-40
2023/04/28 05:15:34;;;;;;;;;4.00;2.00;;;;;21.87;45.16;101360.05;110197;1257;18157;-40
2023/04/28 05:18:08;;;;;;;;;5.00;4.00;;;;;21.85;45.33;101358.08;110206;1265;19237;-40
2023/04/28 05:20:36;;;;;;;;;4.00;2.00;;;;;21.87;45.23;101358.58;110205;1266;20041;-40
2023/04/28 05:23:03;;;;;;;;;4.00;2.00;;;;;21.87;45.54;101354.42;110205;1265;19570;-39
2023/04/28 05:25:31;;;;;;;;;2.00;2.00;;;;;21.87;45.54;101354.57;110208;1250;19240;-39
2023/04/28 05:28:01;;;;;;;;;4.00;3.00;;;;;21.87;45.41;101359.31;110188;1250;18523;-41
2023/04/28 05:30:29;;;;;;;;;2.00;2.00;;;;;21.87;45.29;101356.70;110160;1265;19521;-39
2023/04/28 05:32:56;;;;;;;;;2.00;2.00;;;;;21.89;45.43;101359.83;110192;1265;17913;-39
2023/04/28 05:35:24;;;;;;;;;4.00;2.00;;;;;21.89;45.44;101362.75;110182;1251;20376;-40
2023/04/28 05:37:51;;;;;;;;;2.00;2.00;;;;;21.91;45.66;101363.43;110206;1257;18210;-40
2023/04/28 05:40:19;;;;;;;;;2.00;2.00;;;;;21.94;45.91;101366.34;110190;1265;17818;-40
2023/04/28 05:42:46;;;;;;;;;4.00;2.00;;;;;21.95;45.90;101368.23;110179;1251;20179;-40
2023/04/28 05:45:14;;;;;;;;;2.00;2.00;;;;;21.95;45.76;101367.88;110194;1260;19384;-41
2023/04/28 05:47:41;;;;;;;;;5.00;4.00;;;;;21.96;45.76;101365.93;110213;1265;18069;-38
2023/04/28 05:50:09;;;;;;;;;2.00;2.00;;;;;21.96;45.84;101364.88;110176;1251;21865;-42
2023/04/28 05:52:36;;;;;;;;;2.00;2.00;;;;;21.96;45.77;101364.09;110175;1265;21664;-39
2023/04/28 05:55:04;;;;;;;;;5.00;4.00;;;;;21.98;45.72;101370.30;110184;1265;18235;-39
2023/04/28 05:57:31;;;;;;;;;3.00;3.00;;;;;21.98;45.60;101371.01;110163;1266;21628;-39
2023/04/28 05:59:59;;;;;;;;;5.00;4.00;;;;;21.99;45.67;101369.60;110180;1266;18226;-43
2023/04/28 06:02:26;;;;;;;;;2.00;2.00;;;;;22.00;45.50;101371.46;110216;1265;19226;-40
2023/04/28 06:04:54;;;;;;;;;4.00;4.00;;;;;22.02;45.35;101372.73;110194;1249;22125;-40
2023/04/28 06:07:22;;;;;;;;;5.00;5.00;;;;;22.03;45.42;101368.05;110200;1250;18216;-43
2023/04/28 06:09:49;;;;;;;;;2.00;2.00;;;;;22.05;45.21;101368.09;110205;1251;19378;-39
2023/04/28 06:12:17;;;;;;;;;4.00;2.00;;;;;22.06;45.19;101368.08;110180;1265;18765;-39
2023/04/28 06:14:44;;;;;;;;;3.50;2.00;;;;;22.08;45.04;101368.30;110154;1257;21930;-39
2023/04/28 06:17:11;;;;;;;;;1.00;1.00;;;;;22.09;45.12;101366.02;110170;1265;19290;-39
2023/04/28 06:19:39;;;;;;;;;4.00;4.00;;;;;22.10;44.95;101366.19;110184;1265;19406;-39
2023/04/28 06:22:06;;;;;;;;;5.00;4.50;;;;;22.13;45.06;101367.74;110187;1265;18552;-40
2023/04/28 06:24:34;;;;;;;;;2.00;2.00;;;;;22.14;44.97;101366.41;110178;1265;19226;-39
2023/04/28 06:27:01;;;;;;;;;2.00;2.00;;;;;22.16;44.86;101367.60;110205;1265;20393;-38
2023/04/28 06:29:29;;;;;;;;;2.00;2.00;;;;;22.16;44.85;101362.17;110176;1250;19665;-41
2023/04/28 06:31:57;;;;;;;;;2.00;2.00;;;;;22.17;44.69;101360.64;110152;1265;17909;-40
2023/04/28 06:34:26;;;;;;;;;2.00;2.00;;;;;22.19;44.74;101363.86;110176;1250;18760;-40
2023/04/28 06:36:54;;;;;;;;;4.00;4.00;;;;;22.19;44.61;101362.38;110193;1265;18218;-41
2023/04/28 06:39:21;;;;;;;;;4.00;4.00;;;;;22.20;44.41;101358.46;110194;1265;19344;-40
2023/04/28 06:41:49;;;;;;;;;4.00;4.00;;;;;22.21;44.60;101359.61;110190;1250;19960;-41
2023/04/28 06:44:16;;;;;;;;;5.00;4.00;;;;;22.21;44.49;101356.52;110185;1265;21625;-40
2023/04/28 06:46:44;;;;;;;;;4.00;4.00;;;;;22.21;44.49;101353.73;110176;1265;19270;-41
2023/04/28 06:49:11;;;;;;;;;2.00;2.00;;;;;22.23;44.45;101354.08;110178;1265;18579;-41
2023/04/28 06:51:39;;;;;;;;;4.00;4.00;;;;;22.24;44.40;101354.20;110174;1251;19689;-40
2023/04/28 06:54:06;;;;;;;;;5.00;4.50;;;;;22.24;44.55;101356.67;110151;1250;22170;-42
2023/04/28 06:56:34;;;;;;;;;4.00;4.00;;;;;22.26;44.27;101351.90;110172;1265;18558;-40
2023/04/28 06:59:02;;;;;;;;;2.00;2.00;;;;;22.27;44.39;101350.66;110183;1265;18211;-40
2023/04/28 07:01:29;;;;;;;;;2.67;2.67;;;;;22.28;44.32;101349.91;110161;1265;19468;-42
2023/04/28 07:03:56;;;;;;;;;2.00;2.00;;;;;22.29;44.17;101354.84;110179;1250;20029;-39
2023/04/28 07:06:26;;;;;;;;;4.00;4.00;;;;;22.30;44.06;101353.09;110197;1265;18228;-41
2023/04/28 07:08:53;;;;;;;;;2.00;2.00;;;;;22.31;44.11;101350.02;110047;1265;17951;-40
2023/04/28 07:11:22;;;;;;;;;2.00;2.00;;;;;22.33;44.21;101352.06;110164;1265;18592;-40
2023/04/28 07:13:50;;;;;;;;;2.00;2.00;;;;;22.34;44.22;101351.58;110190;1265;19611;-41
2023/04/28 07:16:17;;;;;;;;;2.00;2.00;;;;;22.35;44.02;101343.59;110200;1265;19225;-40
2023/04/28 07:18:45;;;;;;;;;2.00;2.00;;;;;22.36;44.06;101347.35;110067;1251;20293;-40
2023/04/28 07:21:13;;;;;;;;;2.00;2.00;;;;;22.38;44.11;101336.05;110169;1250;19669;-39
2023/04/28 07:23:40;;;;;;;;;4.00;4.00;;;;;22.37;43.97;101333.52;110159;1265;19548;-40
2023/04/28 07:26:08;;;;;;;;;2.00;2.00;;;;;22.39;43.87;101334.06;110174;1253;20048;-40
2023/04/28 07:28:35;;;;;;;;;2.00;2.00;;;;;22.40;43.85;101332.98;110184;1250;22021;-40
2023/04/28 07:31:03;;;;;;;;;2.00;2.00;;;;;22.40;43.81;101327.70;110183;1250;19355;-40
2023/04/28 07:33:30;;;;;;;;;2.00;2.00;;;;;22.40;43.85;101328.08;110181;1266;22054;-39
2023/04/28 07:35:58;;;;;;;;;2.00;2.00;;;;;22.40;43.75;101321.65;110218;1265;18875;-39
2023/04/28 07:38:25;;;;;;;;;5.00;4.00;;;;;22.42;43.69;101319.38;110179;1265;19253;-39
2023/04/28 07:40:52;;;;;;;;;4.00;4.00;;;;;22.43;43.55;101313.82;110136;1265;21370;-43
2023/04/28 07:43:20;;;;;;;;;2.00;2.00;;;;;22.43;42.97;101312.52;110184;1251;19923;-40
2023/04/28 07:45:48;;;;;;;;;4.00;3.00;;;;;22.40;42.90;101311.39;110124;1266;19291;-41
2023/04/28 07:48:16;;;;;;;;;4.00;4.00;;;;;22.33;42.01;101309.63;110167;1265;18712;-40
2023/04/28 07:50:43;;;;;;;;;4.50;4.50;;;;;22.17;39.12;101312.71;110164;1265;19084;-42
2023/04/28 07:53:11;;;;;;;;;2.00;2.00;;;;;21.95;36.76;101310.59;110181;1250;19338;-40
2023/04/28 07:55:40;;;;;;;;;4.00;4.00;;;;;21.77;35.13;101313.27;110193;1265;19062;-41
2023/04/28 07:58:08;;;;;;;;;2.00;2.00;;;;;21.61;33.54;101311.08;110160;1265;19585;-42
2023/04/28 08:00:35;;;;;;;;;4.00;4.00;;;;;21.62;32.91;101305.19;110194;1249;17902;-40
2023/04/28 08:03:03;;;;;;;;;4.33;4.33;;;;;21.64;32.56;101305.13;110159;1265;19951;-40
2023/04/28 08:05:31;;;;;;;;;2.00;2.00;;;;;21.72;32.32;101303.90;110150;1265;18158;-41
2023/04/28 08:07:58;;;;;;;;;4.67;4.67;;;;;21.69;31.30;101303.52;110182;1250;21631;-41
2023/04/28 08:10:26;;;;;;;;;4.00;4.00;;;;;21.71;31.21;101303.63;110176;1251;19969;-40
2023/04/28 08:12:54;;;;;;;;;5.00;5.00;;;;;21.74;31.02;101305.13;110179;1265;18683;-40
2023/04/28 08:15:21;;;;;;;;;4.00;4.00;;;;;21.73;31.05;101305.20;110115;1265;18123;-41
2023/04/28 08:17:49;;;;;;;;;4.50;4.00;;;;;21.70;30.98;101299.77;110135;1250;19974;-41
2023/04/28 08:20:18;;;;;;;;;4.00;4.00;;;;;21.70;30.87;101304.12;110137;1265;18591;-45
2023/04/28 08:22:46;;;;;;;;;2.00;2.00;;;;;21.67;30.66;101303.86;110194;1250;19366;-41
2023/04/28 08:25:13;;;;;;;;;4.00;4.00;;;;;21.63;30.11;101302.36;110163;1265;20012;-40
2023/04/28 08:27:40;;;;;;;;;3.00;3.00;;;;;21.62;29.67;101300.95;110029;1265;155973;-40
2023/04/28 08:30:08;;;;;;;;;4.00;4.00;;;;;21.56;29.12;101296.11;110191;1250;21745;-40
2023/04/28 08:32:35;;;;;;;;;4.00;4.00;;;;;21.55;29.27;101294.31;110205;1249;20331;-40
2023/04/28 08:35:03;;;;;;;;;4.00;2.00;;;;;21.59;29.24;101289.98;110164;1265;19844;-40
2023/04/28 08:37:31;;;;;;;;;5.00;4.00;;;;;21.58;28.82;101288.88;110202;1265;19591;-41
2023/04/28 08:40:08;;;;;;;;;5.00;4.00;;;;;21.54;28.33;101285.81;110193;1265;20238;-40
2023/04/28 08:42:36;;;;;;;;;5.00;4.00;;;;;21.51;27.82;101275.67;110173;1265;22018;-40
2023/04/28 08:45:04;;;;;;;;;5.00;5.00;;;;;21.44;27.84;101279.29;110153;1257;22956;-40
2023/04/28 08:47:31;;;;;;;;;5.00;5.00;;;;;21.47;28.41;101275.38;110141;1265;22031;-41
2023/04/28 08:49:59;;;;;;;;;6.33;5.00;;;;;21.51;28.46;101275.96;110172;1250;21165;-40
2023/04/28 08:52:27;;;;;;;;;5.00;4.00;;;;;21.38;27.65;101277.64;110088;1250;19384;-40
2023/04/28 08:54:54;;;;;;;;;6.33;4.67;;;;;21.27;27.41;101279.41;110166;1266;20915;-40
2023/04/28 08:57:22;;;;;;;;;4.00;4.00;;;;;21.04;27.21;101276.20;110201;1265;19569;-40
2023/04/28 08:59:49;;;;;;;;;7.00;5.00;;;;;21.09;27.20;101274.01;110228;1265;18151;-42
2023/04/28 09:02:17;;;;;;;;;4.00;4.00;;;;;21.14;27.21;101275.72;110198;1251;18681;-40
2023/04/28 09:04:44;;;;;;;;;5.00;4.00;;;;;21.02;26.93;101270.77;110192;1257;18554;-40
2023/04/28 09:07:11;;;;;;;;;4.00;4.00;;;;;21.18;26.83;101271.53;110192;1250;17884;-40
2023/04/28 09:09:39;;;;;;;;;4.00;4.00;;;;;21.26;26.89;101265.11;110188;1250;21912;-41
2023/04/28 09:12:07;;;;;;;;;4.00;4.00;;;;;21.16;26.57;101261.27;110187;1266;19583;-41
2023/04/28 09:14:34;;;;;;;;;4.00;4.00;;;;;20.99;26.26;101258.79;110199;1265;19286;-40
2023/04/28 09:17:02;;;;;;;;;7.00;5.00;;;;;20.98;25.93;101259.42;110196;1265;19971;-41
2023/04/28 09:19:29;;;;;;;;;4.00;4.00;;;;;20.96;26.06;101253.83;110195;1265;18242;-41
2023/04/28 09:21:56;;;;;;;;;4.00;4.00;;;;;21.00;25.99;101253.34;110208;1250;21513;-41
2023/04/28 09:24:24;;;;;;;;;7.00;5.00;;;;;21.11;26.18;101248.91;110150;1265;18572;-41
2023/04/28 09:26:51;;;;;;;;;4.50;4.00;;;;;21.20;26.38;101243.54;110053;1265;20677;-39
2023/04/28 09:29:19;;;;;;;;;4.00;2.00;;;;;21.29;26.35;101244.63;110120;1259;19395;-40
2023/04/28 09:31:46;;;;;;;;;4.00;4.00;;;;;21.26;26.00;101243.25;110163;1249;18748;-42
2023/04/28 09:34:14;;;;;;;;;5.00;4.33;;;;;21.24;25.87;101241.09;110182;1257;18231;-41
2023/04/28 09:36:41;;;;;;;;;4.00;4.00;;;;;21.25;25.97;101237.23;110196;1259;19265;-40
2023/04/28 09:39:09;;;;;;;;;4.00;4.00;;;;;21.24;25.90;101235.35;110193;1254;18640;-40
2023/04/28 09:41:38;;;;;;;;;5.00;5.00;;;;;21.22;26.17;101232.93;110192;1250;19759;-38
2023/04/28 09:44:06;;;;;;;;;4.00;4.00;;;;;21.25;26.05;101233.90;110219;1250;19431;-39
2023/04/28 09:46:33;;;;;;;;;4.00;4.00;;;;;21.20;25.73;101237.69;110206;1259;20257;-42
2023/04/28 09:49:00;;;;;;;;;2.67;2.67;;;;;21.18;25.90;101233.98;110193;1250;21991;-41
2023/04/28 09:51:28;;;;;;;;;4.00;4.00;;;;;21.22;26.07;101228.07;110209;1265;17964;-41
2023/04/28 09:53:56;;;;;;;;;4.00;4.00;;;;;21.22;25.85;101225.89;110186;1250;21285;-40
2023/04/28 09:56:24;;;;;;;;;5.00;4.00;;;;;21.23;26.14;101222.89;110188;1265;21192;-41
2023/04/28 09:58:51;;;;;;;;;4.00;4.00;;;;;21.18;26.10;101217.11;110205;1258;19314;-41
2023/04/28 10:01:19;;;;;;;;;5.00;5.00;;;;;21.25;26.46;101212.88;110152;1265;21125;-40
2023/04/28 10:03:46;;;;;;;;;5.00;5.00;;;;;21.20;26.11;101213.58;110151;1265;21965;-40
2023/04/28 10:06:14;;;;;;;;;5.00;4.00;;;;;21.21;26.31;101212.42;110124;1265;20232;-41
2023/04/28 10:08:41;;;;;;;;;7.00;5.00;;;;;21.21;26.30;101212.14;110114;1265;20013;-41
2023/04/28 10:11:09;;;;;;;;;4.33;4.33;;;;;21.20;26.15;101203.83;110149;1265;22098;-43
2023/04/28 10:13:36;;;;;;;;;4.00;4.00;;;;;21.22;26.40;101209.02;110198;1250;17923;-40
2023/04/28 10:16:04;;;;;;;;;4.00;4.00;;;;;21.15;26.19;101212.48;110188;1266;20074;-42
2023/04/28 10:18:33;;;;;;;;;4.67;4.67;;;;;21.07;26.40;101204.60;110161;1265;19573;-46
2023/04/28 10:21:02;;;;;;;;;4.00;4.00;;;;;21.01;26.39;101206.96;110228;1265;17896;-41
2023/04/28 10:23:30;;;;;;;;;4.00;4.00;;;;;20.96;26.26;101208.93;110184;1251;20053;-41
2023/04/28 10:25:58;;;;;;;;;4.00;4.00;;;;;20.95;26.53;101199.02;110198;1250;18146;-39
2023/04/28 10:28:26;;;;;;;;;4.33;4.33;;;;;20.93;26.43;101196.77;110145;1250;21883;-40
2023/04/28 10:30:53;;;;;;;;;5.00;5.00;;;;;20.86;26.51;101191.64;110182;1250;18549;-42
2023/04/28 10:33:21;;;;;;;;;5.00;5.00;;;;;20.81;26.25;101193.36;110183;1265;19647;-41
2023/04/28 10:35:49;;;;;;;;;5.00;4.00;;;;;20.67;26.28;101192.87;110187;1265;22121;-42
2023/04/28 10:38:16;;;;;;;;;5.00;5.00;;;;;20.74;26.14;101184.86;110135;1266;18588;-41
2023/04/28 10:40:44;;;;;;;;;6.67;5.00;;;;;20.55;25.86;101185.39;110136;1265;19538;-42
2023/04/28 10:43:12;;;;;;;;;4.67;4.67;;;;;20.59;25.78;101182.70;110189;1265;18044;-41
2023/04/28 10:45:39;;;;;;;;;4.50;4.50;;;;;20.64;25.93;101182.63;110182;1265;21552;-41
2023/04/28 10:48:06;;;;;;;;;6.50;6.50;;;;;20.64;26.03;101177.14;110153;1265;19612;-40
2023/04/28 10:50:36;;;;;;;;;4.00;4.00;;;;;20.70;26.20;101174.50;110132;1265;18875;-40
2023/04/28 10:53:04;;;;;;;;;5.00;5.00;;;;;20.67;26.04;101169.55;110133;1266;19219;-39
2023/04/28 10:55:35;;;;;;;;;5.00;5.00;;;;;20.66;26.03;101166.97;110070;1265;19624;-39
2023/04/28 10:58:02;;;;;;;;;5.00;5.00;;;;;20.72;26.17;101162.92;110094;1265;19318;-39
2023/04/28 11:00:30;;;;;;;;;6.00;4.00;;;;;20.70;25.94;101163.13;110114;1265;18556;-40
2023/04/28 11:02:57;;;;;;;;;5.00;5.00;;;;;20.71;26.23;101161.56;110092;1265;19556;-39
2023/04/28 11:05:26;;;;;;;;;5.00;5.00;;;;;20.67;26.11;101158.49;110146;1265;19236;-39
2023/04/28 11:07:53;;;;;;;;;4.00;4.00;;;;;20.60;26.06;101154.16;110199;1250;19988;-41
2023/04/28 11:10:21;;;;;;;;;4.00;4.00;;;;;20.64;25.80;101147.63;110161;1265;19638;-40
2023/04/28 11:12:48;;;;;;;;;4.50;4.50;;;;;20.61;25.71;101145.38;110162;1257;22766;-40
2023/04/28 11:15:16;;;;;;;;;5.00;5.00;;;;;20.54;25.59;101147.25;110167;1251;19997;-41
2023/04/28 11:17:43;;;;;;;;;5.50;5.00;;;;;20.47;25.30;101151.59;110198;1250;19646;-39